sensor_id;sensor_type;location;lat;lon;timestamp;P1;durP1;ratioP1;P2;durP2;ratioP2
11066;SDS011;29763;50.904;5.530;2023-10-31T00:01:14;4.65;;;3.53;;
11066;SDS011;29763;50.904;5.530;2023-10-31T00:03:41;5.53;;;3.28;;
11066;SDS011;29763;50.904;5.530;2023-10-31T00:06:07;6.80;;;3.05;;
11066;SDS011;29763;50.904;5.530;2023-10-31T00:08:33;4.88;;;3.40;;
11066;SDS011;29763;50.904;5.530;2023-10-31T00:10:59;4.35;;;3.20;;
11066;SDS011;29763;50.904;5.530;2023-10-31T00:13:31;4.47;;;3.45;;
11066;SDS011;29763;50.904;5.530;2023-10-31T00:15:57;4.07;;;3.28;;
11066;SDS011;29763;50.904;5.530;2023-10-31T00:18:22;6.10;;;3.63;;
11066;SDS011;29763;50.904;5.530;2023-10-31T00:20:48;7.00;;;4.03;;
11066;SDS011;29763;50.904;5.530;2023-10-31T00:23:14;5.47;;;4.03;;
11066;SDS011;29763;50.904;5.530;2023-10-31T00:25:41;5.88;;;4.32;;
11066;SDS011;29763;50.904;5.530;2023-10-31T00:28:06;5.88;;;4.40;;
11066;SDS011;29763;50.904;5.530;2023-10-31T00:30:32;7.03;;;4.72;;
11066;SDS011;29763;50.904;5.530;2023-10-31T00:32:58;7.38;;;5.28;;
11066;SDS011;29763;50.904;5.530;2023-10-31T00:35:25;8.85;;;5.70;;
11066;SDS011;29763;50.904;5.530;2023-10-31T00:37:51;8.32;;;5.68;;
11066;SDS011;29763;50.904;5.530;2023-10-31T00:40:18;10.32;;;6.88;;
11066;SDS011;29763;50.904;5.530;2023-10-31T00:42:45;11.55;;;6.55;;
11066;SDS011;29763;50.904;5.530;2023-10-31T00:45:13;10.60;;;6.72;;
11066;SDS011;29763;50.904;5.530;2023-10-31T00:47:38;11.68;;;6.78;;
11066;SDS011;29763;50.904;5.530;2023-10-31T00:50:04;10.38;;;7.00;;
11066;SDS011;29763;50.904;5.530;2023-10-31T00:52:34;9.57;;;6.47;;
11066;SDS011;29763;50.904;5.530;2023-10-31T00:55:00;10.20;;;7.38;;
11066;SDS011;29763;50.904;5.530;2023-10-31T00:57:27;12.88;;;7.35;;
11066;SDS011;29763;50.904;5.530;2023-10-31T00:59:55;12.30;;;7.90;;
11066;SDS011;29763;50.904;5.530;2023-10-31T01:02:20;13.57;;;8.60;;
11066;SDS011;29763;50.904;5.530;2023-10-31T01:04:46;14.07;;;8.10;;
11066;SDS011;29763;50.904;5.530;2023-10-31T01:07:12;13.20;;;8.18;;
11066;SDS011;29763;50.904;5.530;2023-10-31T01:09:43;13.13;;;8.52;;
11066;SDS011;29763;50.904;5.530;2023-10-31T01:12:09;14.07;;;8.98;;
11066;SDS011;29763;50.904;5.530;2023-10-31T01:14:36;16.00;;;8.82;;
11066;SDS011;29763;50.904;5.530;2023-10-31T01:17:02;12.57;;;9.00;;
11066;SDS011;29763;50.904;5.530;2023-10-31T01:19:27;15.05;;;9.18;;
11066;SDS011;29763;50.904;5.530;2023-10-31T01:21:55;12.55;;;8.60;;
11066;SDS011;29763;50.904;5.530;2023-10-31T01:24:22;13.60;;;8.73;;
11066;SDS011;29763;50.904;5.530;2023-10-31T01:26:49;13.20;;;8.77;;
11066;SDS011;29763;50.904;5.530;2023-10-31T01:29:22;12.50;;;8.40;;
11066;SDS011;29763;50.904;5.530;2023-10-31T01:31:47;13.70;;;8.30;;
11066;SDS011;29763;50.904;5.530;2023-10-31T01:34:13;11.43;;;7.90;;
11066;SDS011;29763;50.904;5.530;2023-10-31T01:36:42;11.15;;;7.43;;
11066;SDS011;29763;50.904;5.530;2023-10-31T01:39:07;10.57;;;6.97;;
11066;SDS011;29763;50.904;5.530;2023-10-31T01:41:33;11.48;;;7.55;;
11066;SDS011;29763;50.904;5.530;2023-10-31T01:44:00;9.70;;;7.07;;
11066;SDS011;29763;50.904;5.530;2023-10-31T01:46:26;12.25;;;7.13;;
11066;SDS011;29763;50.904;5.530;2023-10-31T01:48:52;7.78;;;6.05;;
11066;SDS011;29763;50.904;5.530;2023-10-31T01:51:20;10.52;;;6.55;;
11066;SDS011;29763;50.904;5.530;2023-10-31T01:53:46;9.18;;;6.65;;
11066;SDS011;29763;50.904;5.530;2023-10-31T01:56:13;9.65;;;6.70;;
11066;SDS011;29763;50.904;5.530;2023-10-31T01:58:47;8.65;;;6.60;;
11066;SDS011;29763;50.904;5.530;2023-10-31T02:01:14;7.15;;;5.90;;
11066;SDS011;29763;50.904;5.530;2023-10-31T02:03:39;8.85;;;6.28;;
11066;SDS011;29763;50.904;5.530;2023-10-31T02:06:06;11.38;;;6.20;;
11066;SDS011;29763;50.904;5.530;2023-10-31T02:08:38;9.15;;;6.00;;
11066;SDS011;29763;50.904;5.530;2023-10-31T02:11:04;8.65;;;6.10;;
11066;SDS011;29763;50.904;5.530;2023-10-31T02:13:36;7.45;;;5.78;;
11066;SDS011;29763;50.904;5.530;2023-10-31T02:16:03;8.35;;;6.40;;
11066;SDS011;29763;50.904;5.530;2023-10-31T02:18:29;7.93;;;6.38;;
11066;SDS011;29763;50.904;5.530;2023-10-31T02:20:54;9.15;;;6.72;;
11066;SDS011;29763;50.904;5.530;2023-10-31T02:23:20;7.28;;;5.60;;
11066;SDS011;29763;50.904;5.530;2023-10-31T02:25:48;8.10;;;5.72;;
11066;SDS011;29763;50.904;5.530;2023-10-31T02:28:14;8.50;;;6.60;;
11066;SDS011;29763;50.904;5.530;2023-10-31T02:30:40;6.78;;;6.07;;
11066;SDS011;29763;50.904;5.530;2023-10-31T02:33:07;6.88;;;5.50;;
11066;SDS011;29763;50.904;5.530;2023-10-31T02:35:34;6.57;;;5.38;;
11066;SDS011;29763;50.904;5.530;2023-10-31T02:38:00;7.15;;;5.78;;
11066;SDS011;29763;50.904;5.530;2023-10-31T02:40:29;8.20;;;5.82;;
11066;SDS011;29763;50.904;5.530;2023-10-31T02:42:55;7.03;;;5.07;;
11066;SDS011;29763;50.904;5.530;2023-10-31T02:45:20;6.07;;;4.82;;
11066;SDS011;29763;50.904;5.530;2023-10-31T02:47:52;6.68;;;5.28;;
11066;SDS011;29763;50.904;5.530;2023-10-31T02:50:19;5.80;;;5.00;;
11066;SDS011;29763;50.904;5.530;2023-10-31T02:52:45;6.88;;;4.80;;
11066;SDS011;29763;50.904;5.530;2023-10-31T02:55:12;5.60;;;5.00;;
11066;SDS011;29763;50.904;5.530;2023-10-31T02:57:44;6.38;;;5.00;;
11066;SDS011;29763;50.904;5.530;2023-10-31T03:00:11;6.03;;;4.68;;
11066;SDS011;29763;50.904;5.530;2023-10-31T03:02:40;5.03;;;4.40;;
11066;SDS011;29763;50.904;5.530;2023-10-31T03:05:06;5.05;;;4.55;;
11066;SDS011;29763;50.904;5.530;2023-10-31T03:07:37;5.18;;;4.65;;
11066;SDS011;29763;50.904;5.530;2023-10-31T03:10:03;4.63;;;4.20;;
11066;SDS011;29763;50.904;5.530;2023-10-31T03:12:29;5.78;;;4.35;;
11066;SDS011;29763;50.904;5.530;2023-10-31T03:14:54;5.40;;;4.55;;
11066;SDS011;29763;50.904;5.530;2023-10-31T03:17:23;5.32;;;4.82;;
11066;SDS011;29763;50.904;5.530;2023-10-31T03:19:50;4.93;;;4.53;;
11066;SDS011;29763;50.904;5.530;2023-10-31T03:22:16;4.88;;;4.40;;
11066;SDS011;29763;50.904;5.530;2023-10-31T03:24:42;5.97;;;4.30;;
11066;SDS011;29763;50.904;5.530;2023-10-31T03:27:09;5.35;;;4.78;;
11066;SDS011;29763;50.904;5.530;2023-10-31T03:29:35;4.82;;;4.28;;
11066;SDS011;29763;50.904;5.530;2023-10-31T03:32:00;4.63;;;4.22;;
11066;SDS011;29763;50.904;5.530;2023-10-31T03:34:30;5.43;;;4.45;;
11066;SDS011;29763;50.904;5.530;2023-10-31T03:36:56;5.35;;;4.30;;
11066;SDS011;29763;50.904;5.530;2023-10-31T03:39:21;4.70;;;4.30;;
11066;SDS011;29763;50.904;5.530;2023-10-31T03:41:48;4.85;;;4.35;;
11066;SDS011;29763;50.904;5.530;2023-10-31T03:44:14;5.57;;;4.82;;
11066;SDS011;29763;50.904;5.530;2023-10-31T03:46:40;5.25;;;4.75;;
11066;SDS011;29763;50.904;5.530;2023-10-31T03:49:06;5.60;;;4.95;;
11066;SDS011;29763;50.904;5.530;2023-10-31T03:51:33;5.68;;;5.18;;
11066;SDS011;29763;50.904;5.530;2023-10-31T03:54:00;7.20;;;4.95;;
11066;SDS011;29763;50.904;5.530;2023-10-31T03:56:28;5.53;;;4.88;;
11066;SDS011;29763;50.904;5.530;2023-10-31T03:59:06;6.85;;;5.05;;
11066;SDS011;29763;50.904;5.530;2023-10-31T04:01:34;5.63;;;5.13;;
11066;SDS011;29763;50.904;5.530;2023-10-31T04:04:01;6.60;;;4.60;;
11066;SDS011;29763;50.904;5.530;2023-10-31T04:06:28;5.95;;;5.38;;
11066;SDS011;29763;50.904;5.530;2023-10-31T04:08:55;5.30;;;4.80;;
11066;SDS011;29763;50.904;5.530;2023-10-31T04:11:23;5.60;;;5.00;;
11066;SDS011;29763;50.904;5.530;2023-10-31T04:13:49;5.53;;;5.03;;
11066;SDS011;29763;50.904;5.530;2023-10-31T04:16:18;6.22;;;4.93;;
11066;SDS011;29763;50.904;5.530;2023-10-31T04:18:45;4.82;;;4.40;;
11066;SDS011;29763;50.904;5.530;2023-10-31T04:21:11;5.35;;;4.85;;
11066;SDS011;29763;50.904;5.530;2023-10-31T04:23:38;5.15;;;4.65;;
11066;SDS011;29763;50.904;5.530;2023-10-31T04:26:04;5.88;;;4.80;;
11066;SDS011;29763;50.904;5.530;2023-10-31T04:28:32;5.47;;;4.55;;
11066;SDS011;29763;50.904;5.530;2023-10-31T04:30:59;6.20;;;4.60;;
11066;SDS011;29763;50.904;5.530;2023-10-31T04:33:26;5.82;;;5.03;;
11066;SDS011;29763;50.904;5.530;2023-10-31T04:35:53;5.65;;;4.72;;
11066;SDS011;29763;50.904;5.530;2023-10-31T04:38:19;5.30;;;4.80;;
11066;SDS011;29763;50.904;5.530;2023-10-31T04:40:45;5.30;;;4.80;;
11066;SDS011;29763;50.904;5.530;2023-10-31T04:43:12;5.38;;;4.72;;
11066;SDS011;29763;50.904;5.530;2023-10-31T04:45:38;5.35;;;4.78;;
11066;SDS011;29763;50.904;5.530;2023-10-31T04:48:03;5.10;;;4.60;;
11066;SDS011;29763;50.904;5.530;2023-10-31T04:50:31;5.40;;;4.68;;
11066;SDS011;29763;50.904;5.530;2023-10-31T04:52:58;5.60;;;5.10;;
11066;SDS011;29763;50.904;5.530;2023-10-31T04:55:25;4.75;;;4.32;;
11066;SDS011;29763;50.904;5.530;2023-10-31T04:57:52;5.22;;;4.80;;
11066;SDS011;29763;50.904;5.530;2023-10-31T05:00:18;5.03;;;4.60;;
11066;SDS011;29763;50.904;5.530;2023-10-31T05:02:51;5.88;;;5.38;;
11066;SDS011;29763;50.904;5.530;2023-10-31T05:05:19;6.03;;;5.32;;
11066;SDS011;29763;50.904;5.530;2023-10-31T05:07:45;6.13;;;5.50;;
11066;SDS011;29763;50.904;5.530;2023-10-31T05:10:11;6.68;;;6.03;;
11066;SDS011;29763;50.904;5.530;2023-10-31T05:12:38;9.13;;;6.95;;
11066;SDS011;29763;50.904;5.530;2023-10-31T05:15:05;6.97;;;6.28;;
11066;SDS011;29763;50.904;5.530;2023-10-31T05:17:33;8.60;;;6.93;;
11066;SDS011;29763;50.904;5.530;2023-10-31T05:19:58;6.85;;;6.20;;
11066;SDS011;29763;50.904;5.530;2023-10-31T05:22:24;6.57;;;5.97;;
11066;SDS011;29763;50.904;5.530;2023-10-31T05:24:50;6.57;;;5.97;;
11066;SDS011;29763;50.904;5.530;2023-10-31T05:27:22;7.20;;;6.28;;
11066;SDS011;29763;50.904;5.530;2023-10-31T05:29:55;6.93;;;6.18;;
11066;SDS011;29763;50.904;5.530;2023-10-31T05:32:20;7.85;;;6.65;;
11066;SDS011;29763;50.904;5.530;2023-10-31T05:34:48;6.95;;;6.22;;
11066;SDS011;29763;50.904;5.530;2023-10-31T05:37:13;8.52;;;6.90;;
11066;SDS011;29763;50.904;5.530;2023-10-31T05:39:40;7.78;;;6.97;;
11066;SDS011;29763;50.904;5.530;2023-10-31T05:42:05;8.65;;;7.35;;
11066;SDS011;29763;50.904;5.530;2023-10-31T05:44:33;7.97;;;7.18;;
11066;SDS011;29763;50.904;5.530;2023-10-31T05:47:01;8.02;;;7.22;;
11066;SDS011;29763;50.904;5.530;2023-10-31T05:49:27;8.10;;;7.30;;
11066;SDS011;29763;50.904;5.530;2023-10-31T05:51:55;8.00;;;6.88;;
11066;SDS011;29763;50.904;5.530;2023-10-31T05:54:33;8.60;;;6.93;;
11066;SDS011;29763;50.904;5.530;2023-10-31T05:56:59;7.57;;;6.78;;
11066;SDS011;29763;50.904;5.530;2023-10-31T05:59:24;8.00;;;7.20;;
11066;SDS011;29763;50.904;5.530;2023-10-31T06:01:50;9.48;;;6.35;;
11066;SDS011;29763;50.904;5.530;2023-10-31T06:04:16;8.73;;;6.65;;
11066;SDS011;29763;50.904;5.530;2023-10-31T06:06:50;7.25;;;6.53;;
11066;SDS011;29763;50.904;5.530;2023-10-31T06:09:17;7.47;;;6.68;;
11066;SDS011;29763;50.904;5.530;2023-10-31T06:11:47;9.55;;;7.43;;
11066;SDS011;29763;50.904;5.530;2023-10-31T06:14:14;9.77;;;7.20;;
11066;SDS011;29763;50.904;5.530;2023-10-31T06:16:44;8.98;;;7.25;;
11066;SDS011;29763;50.904;5.530;2023-10-31T06:19:11;8.95;;;7.00;;
11066;SDS011;29763;50.904;5.530;2023-10-31T06:21:40;9.07;;;7.88;;
11066;SDS011;29763;50.904;5.530;2023-10-31T06:24:05;9.15;;;8.15;;
11066;SDS011;29763;50.904;5.530;2023-10-31T06:26:33;8.93;;;7.55;;
11066;SDS011;29763;50.904;5.530;2023-10-31T06:28:58;9.15;;;7.95;;
11066;SDS011;29763;50.904;5.530;2023-10-31T06:31:24;9.65;;;8.43;;
11066;SDS011;29763;50.904;5.530;2023-10-31T06:33:57;8.50;;;7.53;;
11066;SDS011;29763;50.904;5.530;2023-10-31T06:36:23;9.95;;;7.68;;
11066;SDS011;29763;50.904;5.530;2023-10-31T06:38:50;11.48;;;8.40;;
11066;SDS011;29763;50.904;5.530;2023-10-31T06:41:18;10.13;;;8.35;;
11066;SDS011;29763;50.904;5.530;2023-10-31T06:43:43;10.05;;;8.38;;
11066;SDS011;29763;50.904;5.530;2023-10-31T06:46:12;9.18;;;8.10;;
11066;SDS011;29763;50.904;5.530;2023-10-31T06:48:40;8.98;;;8.05;;
11066;SDS011;29763;50.904;5.530;2023-10-31T06:51:07;10.68;;;8.52;;
11066;SDS011;29763;50.904;5.530;2023-10-31T06:53:32;10.45;;;8.73;;
11066;SDS011;29763;50.904;5.530;2023-10-31T06:55:58;9.45;;;8.45;;
11066;SDS011;29763;50.904;5.530;2023-10-31T06:58:27;11.68;;;8.98;;
11066;SDS011;29763;50.904;5.530;2023-10-31T07:00:52;11.23;;;9.00;;
11066;SDS011;29763;50.904;5.530;2023-10-31T07:03:19;9.68;;;8.20;;
11066;SDS011;29763;50.904;5.530;2023-10-31T07:05:45;10.27;;;8.93;;
11066;SDS011;29763;50.904;5.530;2023-10-31T07:08:11;11.15;;;8.68;;
11066;SDS011;29763;50.904;5.530;2023-10-31T07:10:38;10.23;;;8.80;;
11066;SDS011;29763;50.904;5.530;2023-10-31T07:13:05;9.23;;;8.07;;
11066;SDS011;29763;50.904;5.530;2023-10-31T07:15:31;12.27;;;8.18;;
11066;SDS011;29763;50.904;5.530;2023-10-31T07:17:57;11.13;;;8.10;;
11066;SDS011;29763;50.904;5.530;2023-10-31T07:20:24;9.27;;;7.75;;
11066;SDS011;29763;50.904;5.530;2023-10-31T07:22:51;8.80;;;7.90;;
11066;SDS011;29763;50.904;5.530;2023-10-31T07:25:16;8.50;;;7.53;;
11066;SDS011;29763;50.904;5.530;2023-10-31T07:27:42;9.68;;;7.88;;
11066;SDS011;29763;50.904;5.530;2023-10-31T07:30:10;10.10;;;7.88;;
11066;SDS011;29763;50.904;5.530;2023-10-31T07:32:36;9.63;;;7.65;;
11066;SDS011;29763;50.904;5.530;2023-10-31T07:35:03;8.10;;;7.25;;
11066;SDS011;29763;50.904;5.530;2023-10-31T07:37:30;11.73;;;7.90;;
11066;SDS011;29763;50.904;5.530;2023-10-31T07:39:55;8.85;;;7.65;;
11066;SDS011;29763;50.904;5.530;2023-10-31T07:42:21;9.68;;;7.65;;
11066;SDS011;29763;50.904;5.530;2023-10-31T07:44:50;8.77;;;6.95;;
11066;SDS011;29763;50.904;5.530;2023-10-31T07:47:17;9.10;;;7.35;;
11066;SDS011;29763;50.904;5.530;2023-10-31T07:49:43;7.95;;;7.10;;
11066;SDS011;29763;50.904;5.530;2023-10-31T07:52:09;7.32;;;6.63;;
11066;SDS011;29763;50.904;5.530;2023-10-31T07:54:38;8.23;;;6.45;;
11066;SDS011;29763;50.904;5.530;2023-10-31T07:57:09;7.32;;;6.15;;
11066;SDS011;29763;50.904;5.530;2023-10-31T07:59:35;8.98;;;6.60;;
11066;SDS011;29763;50.904;5.530;2023-10-31T08:02:03;6.70;;;5.60;;
11066;SDS011;29763;50.904;5.530;2023-10-31T08:04:37;7.55;;;6.15;;
11066;SDS011;29763;50.904;5.530;2023-10-31T08:07:05;9.35;;;5.97;;
11066;SDS011;29763;50.904;5.530;2023-10-31T08:09:33;6.90;;;5.70;;
11066;SDS011;29763;50.904;5.530;2023-10-31T08:12:01;8.20;;;6.07;;
11066;SDS011;29763;50.904;5.530;2023-10-31T08:14:30;6.35;;;5.30;;
11066;SDS011;29763;50.904;5.530;2023-10-31T08:16:56;8.10;;;5.90;;
11066;SDS011;29763;50.904;5.530;2023-10-31T08:19:30;5.95;;;5.25;;
11066;SDS011;29763;50.904;5.530;2023-10-31T08:21:56;9.18;;;5.60;;
11066;SDS011;29763;50.904;5.530;2023-10-31T08:24:23;7.60;;;5.53;;
11066;SDS011;29763;50.904;5.530;2023-10-31T08:26:49;7.45;;;5.40;;
11066;SDS011;29763;50.904;5.530;2023-10-31T08:29:17;9.57;;;5.25;;
11066;SDS011;29763;50.904;5.530;2023-10-31T08:31:48;5.45;;;4.53;;
11066;SDS011;29763;50.904;5.530;2023-10-31T08:34:22;7.47;;;4.28;;
11066;SDS011;29763;50.904;5.530;2023-10-31T08:36:48;6.07;;;4.32;;
11066;SDS011;29763;50.904;5.530;2023-10-31T08:39:14;7.18;;;4.18;;
11066;SDS011;29763;50.904;5.530;2023-10-31T08:41:54;5.95;;;3.47;;
11066;SDS011;29763;50.904;5.530;2023-10-31T08:44:22;5.13;;;3.55;;
11066;SDS011;29763;50.904;5.530;2023-10-31T08:46:48;6.90;;;4.05;;
11066;SDS011;29763;50.904;5.530;2023-10-31T08:49:16;3.97;;;3.22;;
11066;SDS011;29763;50.904;5.530;2023-10-31T08:51:42;3.92;;;3.28;;
11066;SDS011;29763;50.904;5.530;2023-10-31T08:54:22;3.97;;;3.25;;
11066;SDS011;29763;50.904;5.530;2023-10-31T08:56:52;3.90;;;3.47;;
11066;SDS011;29763;50.904;5.530;2023-10-31T08:59:19;3.20;;;2.90;;
11066;SDS011;29763;50.904;5.530;2023-10-31T09:01:55;3.45;;;3.03;;
11066;SDS011;29763;50.904;5.530;2023-10-31T09:04:23;4.22;;;3.15;;
11066;SDS011;29763;50.904;5.530;2023-10-31T09:06:51;4.07;;;3.22;;
11066;SDS011;29763;50.904;5.530;2023-10-31T09:09:17;4.13;;;3.20;;
11066;SDS011;29763;50.904;5.530;2023-10-31T09:11:53;4.05;;;3.17;;
11066;SDS011;29763;50.904;5.530;2023-10-31T09:14:20;4.13;;;3.20;;
11066;SDS011;29763;50.904;5.530;2023-10-31T09:16:46;3.67;;;3.20;;
11066;SDS011;29763;50.904;5.530;2023-10-31T09:19:12;4.72;;;3.22;;
11066;SDS011;29763;50.904;5.530;2023-10-31T09:21:38;4.55;;;3.28;;
11066;SDS011;29763;50.904;5.530;2023-10-31T09:24:04;3.83;;;3.53;;
11066;SDS011;29763;50.904;5.530;2023-10-31T09:26:32;4.20;;;2.97;;
11066;SDS011;29763;50.904;5.530;2023-10-31T09:29:00;5.57;;;3.13;;
11066;SDS011;29763;50.904;5.530;2023-10-31T09:31:28;3.50;;;3.20;;
11066;SDS011;29763;50.904;5.530;2023-10-31T09:33:56;4.03;;;2.90;;
11066;SDS011;29763;50.904;5.530;2023-10-31T09:36:22;3.53;;;2.90;;
11066;SDS011;29763;50.904;5.530;2023-10-31T09:38:52;3.88;;;2.60;;
11066;SDS011;29763;50.904;5.530;2023-10-31T09:41:18;2.70;;;2.50;;
11066;SDS011;29763;50.904;5.530;2023-10-31T09:43:45;3.58;;;2.40;;
11066;SDS011;29763;50.904;5.530;2023-10-31T09:46:11;2.72;;;2.40;;
11066;SDS011;29763;50.904;5.530;2023-10-31T09:48:37;4.30;;;2.30;;
11066;SDS011;29763;50.904;5.530;2023-10-31T09:51:04;2.92;;;2.42;;
11066;SDS011;29763;50.904;5.530;2023-10-31T09:53:31;2.60;;;2.30;;
11066;SDS011;29763;50.904;5.530;2023-10-31T09:56:01;2.22;;;2.00;;
11066;SDS011;29763;50.904;5.530;2023-10-31T09:58:44;5.35;;;2.17;;
11066;SDS011;29763;50.904;5.530;2023-10-31T10:01:11;2.65;;;2.45;;
11066;SDS011;29763;50.904;5.530;2023-10-31T10:03:39;4.18;;;2.35;;
11066;SDS011;29763;50.904;5.530;2023-10-31T10:06:10;3.58;;;2.30;;
11066;SDS011;29763;50.904;5.530;2023-10-31T10:08:43;2.72;;;2.25;;
11066;SDS011;29763;50.904;5.530;2023-10-31T10:11:13;4.18;;;2.42;;
11066;SDS011;29763;50.904;5.530;2023-10-31T10:13:45;5.07;;;2.45;;
11066;SDS011;29763;50.904;5.530;2023-10-31T10:16:12;3.22;;;2.42;;
11066;SDS011;29763;50.904;5.530;2023-10-31T10:18:38;2.40;;;2.20;;
11066;SDS011;29763;50.904;5.530;2023-10-31T10:21:07;2.75;;;2.22;;
11066;SDS011;29763;50.904;5.530;2023-10-31T10:23:41;3.47;;;2.50;;
11066;SDS011;29763;50.904;5.530;2023-10-31T10:26:13;2.70;;;2.30;;
11066;SDS011;29763;50.904;5.530;2023-10-31T10:28:41;4.13;;;2.25;;
11066;SDS011;29763;50.904;5.530;2023-10-31T10:31:13;2.88;;;2.25;;
11066;SDS011;29763;50.904;5.530;2023-10-31T10:33:48;2.75;;;2.20;;
11066;SDS011;29763;50.904;5.530;2023-10-31T10:36:23;2.85;;;2.00;;
11066;SDS011;29763;50.904;5.530;2023-10-31T10:38:58;4.53;;;2.55;;
11066;SDS011;29763;50.904;5.530;2023-10-31T10:41:27;3.53;;;2.70;;
11066;SDS011;29763;50.904;5.530;2023-10-31T10:44:06;4.82;;;3.10;;
11066;SDS011;29763;50.904;5.530;2023-10-31T10:46:33;3.75;;;2.80;;
11066;SDS011;29763;50.904;5.530;2023-10-31T10:49:01;3.25;;;2.67;;
11066;SDS011;29763;50.904;5.530;2023-10-31T10:55:19;5.18;;;2.90;;
11066;SDS011;29763;50.904;5.530;2023-10-31T10:57:42;3.88;;;2.60;;
11066;SDS011;29763;50.904;5.530;2023-10-31T11:00:10;4.15;;;2.90;;
11066;SDS011;29763;50.904;5.530;2023-10-31T11:02:49;3.88;;;3.15;;
11066;SDS011;29763;50.904;5.530;2023-10-31T11:05:20;3.67;;;3.15;;
11066;SDS011;29763;50.904;5.530;2023-10-31T11:07:51;4.60;;;2.90;;
11066;SDS011;29763;50.904;5.530;2023-10-31T11:10:20;3.65;;;3.00;;
11066;SDS011;29763;50.904;5.530;2023-10-31T11:12:56;3.50;;;3.20;;
11066;SDS011;29763;50.904;5.530;2023-10-31T11:15:32;4.22;;;3.00;;
11066;SDS011;29763;50.904;5.530;2023-10-31T11:17:58;5.63;;;3.00;;
11066;SDS011;29763;50.904;5.530;2023-10-31T11:20:38;3.50;;;2.30;;
11066;SDS011;29763;50.904;5.530;2023-10-31T11:23:08;4.10;;;2.63;;
11066;SDS011;29763;50.904;5.530;2023-10-31T11:25:48;2.92;;;2.45;;
11066;SDS011;29763;50.904;5.530;2023-10-31T11:28:22;3.83;;;2.60;;
11066;SDS011;29763;50.904;5.530;2023-10-31T11:30:49;3.25;;;2.20;;
11066;SDS011;29763;50.904;5.530;2023-10-31T11:33:26;2.47;;;2.15;;
11066;SDS011;29763;50.904;5.530;2023-10-31T11:36:03;3.22;;;2.10;;
11066;SDS011;29763;50.904;5.530;2023-10-31T11:38:37;5.80;;;2.28;;
11066;SDS011;29763;50.904;5.530;2023-10-31T11:41:06;3.25;;;2.08;;
11066;SDS011;29763;50.904;5.530;2023-10-31T11:46:23;4.45;;;2.30;;
11066;SDS011;29763;50.904;5.530;2023-10-31T11:48:51;5.15;;;2.45;;
11066;SDS011;29763;50.904;5.530;2023-10-31T11:51:32;3.38;;;2.22;;
11066;SDS011;29763;50.904;5.530;2023-10-31T11:54:01;3.85;;;2.30;;
11066;SDS011;29763;50.904;5.530;2023-10-31T11:56:32;5.15;;;1.95;;
11066;SDS011;29763;50.904;5.530;2023-10-31T11:59:00;3.28;;;2.00;;
11066;SDS011;29763;50.904;5.530;2023-10-31T12:01:27;3.67;;;2.00;;
11066;SDS011;29763;50.904;5.530;2023-10-31T12:04:20;5.03;;;2.00;;
11066;SDS011;29763;50.904;5.530;2023-10-31T12:06:58;3.53;;;1.70;;
11066;SDS011;29763;50.904;5.530;2023-10-31T12:09:26;4.97;;;2.20;;
11066;SDS011;29763;50.904;5.530;2023-10-31T12:11:57;6.15;;;2.03;;
11066;SDS011;29763;50.904;5.530;2023-10-31T12:14:25;7.05;;;2.00;;
11066;SDS011;29763;50.904;5.530;2023-10-31T12:16:54;4.95;;;1.88;;
11066;SDS011;29763;50.904;5.530;2023-10-31T12:19:24;3.38;;;1.92;;
11066;SDS011;29763;50.904;5.530;2023-10-31T12:21:51;4.30;;;2.20;;
11066;SDS011;29763;50.904;5.530;2023-10-31T12:24:22;4.47;;;2.20;;
11066;SDS011;29763;50.904;5.530;2023-10-31T12:26:53;3.75;;;2.10;;
11066;SDS011;29763;50.904;5.530;2023-10-31T12:29:20;5.03;;;2.10;;
11066;SDS011;29763;50.904;5.530;2023-10-31T12:31:53;5.82;;;2.00;;
11066;SDS011;29763;50.904;5.530;2023-10-31T12:34:24;4.18;;;1.80;;
11066;SDS011;29763;50.904;5.530;2023-10-31T12:36:54;6.35;;;1.95;;
11066;SDS011;29763;50.904;5.530;2023-10-31T12:39:23;5.35;;;2.03;;
11066;SDS011;29763;50.904;5.530;2023-10-31T12:41:59;4.13;;;2.22;;
11066;SDS011;29763;50.904;5.530;2023-10-31T12:44:28;6.07;;;2.15;;
11066;SDS011;29763;50.904;5.530;2023-10-31T12:46:55;4.13;;;2.03;;
11066;SDS011;29763;50.904;5.530;2023-10-31T12:49:45;5.47;;;1.63;;
11066;SDS011;29763;50.904;5.530;2023-10-31T12:52:11;4.03;;;1.88;;
11066;SDS011;29763;50.904;5.530;2023-10-31T12:54:37;4.18;;;2.10;;
11066;SDS011;29763;50.904;5.530;2023-10-31T12:57:07;4.60;;;1.95;;
11066;SDS011;29763;50.904;5.530;2023-10-31T12:59:38;5.00;;;1.60;;
11066;SDS011;29763;50.904;5.530;2023-10-31T13:02:10;4.63;;;1.98;;
11066;SDS011;29763;50.904;5.530;2023-10-31T13:04:42;6.70;;;2.50;;
11066;SDS011;29763;50.904;5.530;2023-10-31T13:07:08;3.75;;;2.08;;
11066;SDS011;29763;50.904;5.530;2023-10-31T13:09:37;3.90;;;2.00;;
11066;SDS011;29763;50.904;5.530;2023-10-31T13:12:06;3.55;;;2.22;;
11066;SDS011;29763;50.904;5.530;2023-10-31T13:14:39;4.43;;;1.95;;
11066;SDS011;29763;50.904;5.530;2023-10-31T13:17:09;2.47;;;1.85;;
11066;SDS011;29763;50.904;5.530;2023-10-31T13:19:36;3.63;;;1.90;;
11066;SDS011;29763;50.904;5.530;2023-10-31T13:22:02;4.03;;;1.83;;
11066;SDS011;29763;50.904;5.530;2023-10-31T13:24:30;3.25;;;1.90;;
11066;SDS011;29763;50.904;5.530;2023-10-31T13:26:58;6.38;;;2.25;;
11066;SDS011;29763;50.904;5.530;2023-10-31T13:29:24;3.05;;;1.58;;
11066;SDS011;29763;50.904;5.530;2023-10-31T13:32:08;5.57;;;1.88;;
11066;SDS011;29763;50.904;5.530;2023-10-31T13:34:35;3.88;;;1.85;;
11066;SDS011;29763;50.904;5.530;2023-10-31T13:37:04;5.00;;;1.80;;
11066;SDS011;29763;50.904;5.530;2023-10-31T13:39:38;3.08;;;1.70;;
11066;SDS011;29763;50.904;5.530;2023-10-31T13:42:10;2.97;;;2.22;;
11066;SDS011;29763;50.904;5.530;2023-10-31T13:44:49;2.75;;;2.00;;
11066;SDS011;29763;50.904;5.530;2023-10-31T13:47:15;3.38;;;2.28;;
11066;SDS011;29763;50.904;5.530;2023-10-31T13:49:41;4.72;;;2.22;;
11066;SDS011;29763;50.904;5.530;2023-10-31T13:52:17;4.18;;;2.42;;
11066;SDS011;29763;50.904;5.530;2023-10-31T13:54:44;3.60;;;2.17;;
11066;SDS011;29763;50.904;5.530;2023-10-31T13:57:13;3.20;;;2.00;;
11066;SDS011;29763;50.904;5.530;2023-10-31T13:59:42;4.35;;;2.10;;
11066;SDS011;29763;50.904;5.530;2023-10-31T14:02:07;4.05;;;2.20;;
11066;SDS011;29763;50.904;5.530;2023-10-31T14:04:35;3.33;;;2.35;;
11066;SDS011;29763;50.904;5.530;2023-10-31T14:07:02;3.08;;;1.92;;
11066;SDS011;29763;50.904;5.530;2023-10-31T14:09:33;3.53;;;2.22;;
11066;SDS011;29763;50.904;5.530;2023-10-31T14:12:05;4.45;;;2.38;;
11066;SDS011;29763;50.904;5.530;2023-10-31T14:14:32;2.38;;;1.95;;
11066;SDS011;29763;50.904;5.530;2023-10-31T14:16:57;3.35;;;2.20;;
11066;SDS011;29763;50.904;5.530;2023-10-31T14:19:24;2.70;;;1.92;;
11066;SDS011;29763;50.904;5.530;2023-10-31T14:21:49;2.67;;;1.75;;
11066;SDS011;29763;50.904;5.530;2023-10-31T14:24:18;4.13;;;2.33;;
11066;SDS011;29763;50.904;5.530;2023-10-31T14:26:50;3.47;;;1.77;;
11066;SDS011;29763;50.904;5.530;2023-10-31T14:29:16;4.03;;;1.80;;
11066;SDS011;29763;50.904;5.530;2023-10-31T14:31:43;3.55;;;1.92;;
11066;SDS011;29763;50.904;5.530;2023-10-31T14:34:09;1.88;;;1.60;;
11066;SDS011;29763;50.904;5.530;2023-10-31T14:36:36;5.13;;;1.95;;
11066;SDS011;29763;50.904;5.530;2023-10-31T14:39:02;3.70;;;1.80;;
11066;SDS011;29763;50.904;5.530;2023-10-31T14:41:28;4.70;;;2.10;;
11066;SDS011;29763;50.904;5.530;2023-10-31T14:43:58;3.65;;;2.05;;
11066;SDS011;29763;50.904;5.530;2023-10-31T14:46:33;3.67;;;1.92;;
11066;SDS011;29763;50.904;5.530;2023-10-31T14:48:59;2.85;;;1.95;;
11066;SDS011;29763;50.904;5.530;2023-10-31T14:51:25;3.05;;;2.08;;
11066;SDS011;29763;50.904;5.530;2023-10-31T14:53:51;7.03;;;2.90;;
11066;SDS011;29763;50.904;5.530;2023-10-31T14:56:17;5.65;;;2.85;;
11066;SDS011;29763;50.904;5.530;2023-10-31T14:58:44;5.55;;;2.60;;